sensor_id;sensor_type;location;lat;lon;timestamp;P1;durP1;ratioP1;P2;durP2;ratioP2
18568;SDS011;14780;48.316;-1.050;2024-03-08T00:02:11;7.03;;;3.53;;
18568;SDS011;14780;48.316;-1.050;2024-03-08T00:04:56;4.28;;;3.15;;
18568;SDS011;14780;48.316;-1.050;2024-03-08T00:07:41;4.80;;;3.72;;
18568;SDS011;14780;48.316;-1.050;2024-03-08T00:10:26;5.63;;;3.70;;
18568;SDS011;14780;48.316;-1.050;2024-03-08T00:13:12;5.78;;;3.60;;
18568;SDS011;14780;48.316;-1.050;2024-03-08T00:15:56;5.07;;;3.38;;
18568;SDS011;14780;48.316;-1.050;2024-03-08T00:18:41;4.68;;;3.50;;
18568;SDS011;14780;48.316;-1.050;2024-03-08T00:21:26;4.25;;;3.20;;
18568;SDS011;14780;48.316;-1.050;2024-03-08T00:24:10;4.33;;;3.40;;
18568;SDS011;14780;48.316;-1.050;2024-03-08T00:26:56;6.53;;;3.60;;
18568;SDS011;14780;48.316;-1.050;2024-03-08T00:29:41;4.50;;;3.50;;
18568;SDS011;14780;48.316;-1.050;2024-03-08T00:32:26;7.82;;;3.40;;
18568;SDS011;14780;48.316;-1.050;2024-03-08T00:35:15;4.78;;;3.33;;
18568;SDS011;14780;48.316;-1.050;2024-03-08T00:38:00;5.28;;;3.33;;
18568;SDS011;14780;48.316;-1.050;2024-03-08T00:40:44;4.90;;;3.40;;
18568;SDS011;14780;48.316;-1.050;2024-03-08T00:43:29;5.07;;;3.13;;
18568;SDS011;14780;48.316;-1.050;2024-03-08T00:46:13;5.43;;;3.65;;
18568;SDS011;14780;48.316;-1.050;2024-03-08T00:48:59;4.15;;;3.17;;
18568;SDS011;14780;48.316;-1.050;2024-03-08T00:51:47;4.70;;;3.73;;
18568;SDS011;14780;48.316;-1.050;2024-03-08T00:54:32;4.95;;;3.40;;
18568;SDS011;14780;48.316;-1.050;2024-03-08T00:57:19;5.10;;;3.47;;
18568;SDS011;14780;48.316;-1.050;2024-03-08T01:00:05;4.20;;;3.30;;
18568;SDS011;14780;48.316;-1.050;2024-03-08T01:02:53;4.97;;;3.53;;
18568;SDS011;14780;48.316;-1.050;2024-03-08T01:05:37;4.85;;;3.42;;
18568;SDS011;14780;48.316;-1.050;2024-03-08T01:08:23;4.33;;;3.50;;
18568;SDS011;14780;48.316;-1.050;2024-03-08T01:11:08;5.28;;;3.50;;
18568;SDS011;14780;48.316;-1.050;2024-03-08T01:13:52;4.57;;;3.47;;
18568;SDS011;14780;48.316;-1.050;2024-03-08T01:16:37;5.18;;;3.40;;
18568;SDS011;14780;48.316;-1.050;2024-03-08T01:19:22;4.40;;;3.58;;
18568;SDS011;14780;48.316;-1.050;2024-03-08T01:22:07;4.20;;;3.30;;
18568;SDS011;14780;48.316;-1.050;2024-03-08T01:24:51;5.00;;;3.63;;
18568;SDS011;14780;48.316;-1.050;2024-03-08T01:27:37;4.70;;;3.60;;
18568;SDS011;14780;48.316;-1.050;2024-03-08T01:30:21;4.23;;;3.40;;
18568;SDS011;14780;48.316;-1.050;2024-03-08T01:33:07;4.30;;;3.40;;
18568;SDS011;14780;48.316;-1.050;2024-03-08T01:35:53;5.72;;;3.40;;
18568;SDS011;14780;48.316;-1.050;2024-03-08T01:38:38;4.27;;;3.17;;
18568;SDS011;14780;48.316;-1.050;2024-03-08T01:41:23;4.80;;;3.58;;
18568;SDS011;14780;48.316;-1.050;2024-03-08T01:44:08;4.82;;;3.75;;
18568;SDS011;14780;48.316;-1.050;2024-03-08T01:46:52;4.63;;;3.42;;
18568;SDS011;14780;48.316;-1.050;2024-03-08T01:49:38;4.90;;;3.50;;
18568;SDS011;14780;48.316;-1.050;2024-03-08T01:52:23;4.88;;;3.50;;
18568;SDS011;14780;48.316;-1.050;2024-03-08T01:55:09;5.30;;;3.60;;
18568;SDS011;14780;48.316;-1.050;2024-03-08T01:57:54;4.20;;;3.30;;
18568;SDS011;14780;48.316;-1.050;2024-03-08T02:00:40;4.65;;;3.42;;
18568;SDS011;14780;48.316;-1.050;2024-03-08T02:03:30;7.28;;;3.70;;
18568;SDS011;14780;48.316;-1.050;2024-03-08T02:06:15;5.97;;;3.60;;
18568;SDS011;14780;48.316;-1.050;2024-03-08T02:09:00;5.30;;;3.90;;
18568;SDS011;14780;48.316;-1.050;2024-03-08T02:11:49;4.43;;;3.55;;
18568;SDS011;14780;48.316;-1.050;2024-03-08T02:14:34;4.97;;;3.80;;
18568;SDS011;14780;48.316;-1.050;2024-03-08T02:17:20;4.90;;;3.63;;
18568;SDS011;14780;48.316;-1.050;2024-03-08T02:20:04;5.00;;;3.70;;
18568;SDS011;14780;48.316;-1.050;2024-03-08T02:22:52;4.60;;;3.75;;
18568;SDS011;14780;48.316;-1.050;2024-03-08T02:25:36;4.93;;;3.60;;
18568;SDS011;14780;48.316;-1.050;2024-03-08T02:28:22;5.45;;;4.05;;
18568;SDS011;14780;48.316;-1.050;2024-03-08T02:31:09;5.18;;;3.60;;
18568;SDS011;14780;48.316;-1.050;2024-03-08T02:33:54;4.50;;;3.50;;
18568;SDS011;14780;48.316;-1.050;2024-03-08T02:36:39;5.07;;;3.42;;
18568;SDS011;14780;48.316;-1.050;2024-03-08T02:39:23;6.45;;;3.60;;
18568;SDS011;14780;48.316;-1.050;2024-03-08T02:42:08;5.50;;;4.28;;
18568;SDS011;14780;48.316;-1.050;2024-03-08T02:44:52;5.07;;;3.90;;
18568;SDS011;14780;48.316;-1.050;2024-03-08T02:47:37;5.03;;;3.57;;
18568;SDS011;14780;48.316;-1.050;2024-03-08T02:50:21;4.97;;;3.92;;
18568;SDS011;14780;48.316;-1.050;2024-03-08T02:53:06;6.22;;;4.03;;
18568;SDS011;14780;48.316;-1.050;2024-03-08T02:55:51;6.55;;;4.20;;
18568;SDS011;14780;48.316;-1.050;2024-03-08T02:58:36;6.03;;;3.93;;
18568;SDS011;14780;48.316;-1.050;2024-03-08T03:01:21;4.68;;;3.65;;
18568;SDS011;14780;48.316;-1.050;2024-03-08T03:04:06;6.45;;;3.90;;
18568;SDS011;14780;48.316;-1.050;2024-03-08T03:06:51;5.80;;;4.00;;
18568;SDS011;14780;48.316;-1.050;2024-03-08T03:09:35;5.47;;;3.90;;
18568;SDS011;14780;48.316;-1.050;2024-03-08T03:12:20;5.17;;;3.80;;
18568;SDS011;14780;48.316;-1.050;2024-03-08T03:15:06;6.20;;;4.10;;
18568;SDS011;14780;48.316;-1.050;2024-03-08T03:17:51;5.17;;;3.83;;
18568;SDS011;14780;48.316;-1.050;2024-03-08T03:20:36;5.20;;;3.95;;
18568;SDS011;14780;48.316;-1.050;2024-03-08T03:23:23;5.80;;;4.10;;
18568;SDS011;14780;48.316;-1.050;2024-03-08T03:26:10;5.13;;;3.90;;
18568;SDS011;14780;48.316;-1.050;2024-03-08T03:28:55;5.73;;;4.20;;
18568;SDS011;14780;48.316;-1.050;2024-03-08T03:31:40;5.13;;;3.75;;
18568;SDS011;14780;48.316;-1.050;2024-03-08T03:34:26;5.47;;;3.90;;
18568;SDS011;14780;48.316;-1.050;2024-03-08T03:37:10;5.57;;;4.03;;
18568;SDS011;14780;48.316;-1.050;2024-03-08T03:39:56;5.07;;;4.07;;
18568;SDS011;14780;48.316;-1.050;2024-03-08T03:42:41;5.55;;;4.10;;
18568;SDS011;14780;48.316;-1.050;2024-03-08T03:45:25;5.10;;;3.77;;
18568;SDS011;14780;48.316;-1.050;2024-03-08T03:48:10;5.13;;;3.90;;
18568;SDS011;14780;48.316;-1.050;2024-03-08T03:50:55;5.53;;;4.20;;
18568;SDS011;14780;48.316;-1.050;2024-03-08T03:53:40;5.70;;;4.15;;
18568;SDS011;14780;48.316;-1.050;2024-03-08T03:56:25;5.20;;;4.10;;
18568;SDS011;14780;48.316;-1.050;2024-03-08T03:59:10;5.25;;;4.00;;
18568;SDS011;14780;48.316;-1.050;2024-03-08T04:01:55;5.60;;;4.18;;
18568;SDS011;14780;48.316;-1.050;2024-03-08T04:04:40;5.20;;;4.00;;
18568;SDS011;14780;48.316;-1.050;2024-03-08T04:07:24;5.60;;;4.10;;
18568;SDS011;14780;48.316;-1.050;2024-03-08T04:10:10;5.20;;;4.10;;
18568;SDS011;14780;48.316;-1.050;2024-03-08T04:12:55;5.35;;;4.20;;
18568;SDS011;14780;48.316;-1.050;2024-03-08T04:15:41;5.10;;;4.10;;
18568;SDS011;14780;48.316;-1.050;2024-03-08T04:18:28;6.38;;;4.20;;
18568;SDS011;14780;48.316;-1.050;2024-03-08T04:21:12;5.68;;;4.30;;
18568;SDS011;14780;48.316;-1.050;2024-03-08T04:23:57;5.90;;;4.20;;
18568;SDS011;14780;48.316;-1.050;2024-03-08T04:26:42;6.28;;;4.40;;
18568;SDS011;14780;48.316;-1.050;2024-03-08T04:29:27;5.10;;;4.00;;
18568;SDS011;14780;48.316;-1.050;2024-03-08T04:32:11;4.68;;;3.90;;
18568;SDS011;14780;48.316;-1.050;2024-03-08T04:34:57;4.82;;;3.90;;
18568;SDS011;14780;48.316;-1.050;2024-03-08T04:37:42;5.47;;;4.10;;
18568;SDS011;14780;48.316;-1.050;2024-03-08T04:40:26;6.57;;;4.28;;
18568;SDS011;14780;48.316;-1.050;2024-03-08T04:43:11;6.65;;;4.20;;
18568;SDS011;14780;48.316;-1.050;2024-03-08T04:45:56;5.28;;;3.72;;
18568;SDS011;14780;48.316;-1.050;2024-03-08T04:48:41;5.50;;;4.10;;
18568;SDS011;14780;48.316;-1.050;2024-03-08T04:51:27;7.18;;;4.07;;
18568;SDS011;14780;48.316;-1.050;2024-03-08T04:54:11;5.30;;;4.13;;
18568;SDS011;14780;48.316;-1.050;2024-03-08T04:56:56;6.05;;;3.80;;
18568;SDS011;14780;48.316;-1.050;2024-03-08T04:59:41;6.50;;;4.30;;
18568;SDS011;14780;48.316;-1.050;2024-03-08T05:02:26;4.47;;;3.90;;
18568;SDS011;14780;48.316;-1.050;2024-03-08T05:05:11;6.05;;;4.15;;
18568;SDS011;14780;48.316;-1.050;2024-03-08T05:07:56;5.30;;;4.00;;
18568;SDS011;14780;48.316;-1.050;2024-03-08T05:10:41;5.28;;;4.05;;
18568;SDS011;14780;48.316;-1.050;2024-03-08T05:13:25;5.68;;;4.03;;
18568;SDS011;14780;48.316;-1.050;2024-03-08T05:16:10;5.50;;;4.00;;
18568;SDS011;14780;48.316;-1.050;2024-03-08T05:18:55;5.07;;;4.00;;
18568;SDS011;14780;48.316;-1.050;2024-03-08T05:21:40;5.47;;;3.90;;
18568;SDS011;14780;48.316;-1.050;2024-03-08T05:24:25;5.15;;;4.03;;
18568;SDS011;14780;48.316;-1.050;2024-03-08T05:27:09;5.18;;;4.07;;
18568;SDS011;14780;48.316;-1.050;2024-03-08T05:29:54;5.60;;;4.07;;
18568;SDS011;14780;48.316;-1.050;2024-03-08T05:32:38;5.30;;;4.00;;
18568;SDS011;14780;48.316;-1.050;2024-03-08T05:35:23;5.20;;;4.07;;
18568;SDS011;14780;48.316;-1.050;2024-03-08T05:38:08;5.15;;;3.80;;
18568;SDS011;14780;48.316;-1.050;2024-03-08T05:40:52;5.10;;;4.00;;
18568;SDS011;14780;48.316;-1.050;2024-03-08T05:43:37;5.38;;;4.00;;
18568;SDS011;14780;48.316;-1.050;2024-03-08T05:46:24;5.57;;;4.15;;
18568;SDS011;14780;48.316;-1.050;2024-03-08T05:49:09;5.45;;;4.03;;
18568;SDS011;14780;48.316;-1.050;2024-03-08T05:51:55;4.82;;;3.78;;
18568;SDS011;14780;48.316;-1.050;2024-03-08T05:54:40;5.47;;;4.07;;
18568;SDS011;14780;48.316;-1.050;2024-03-08T05:57:25;5.70;;;3.77;;
18568;SDS011;14780;48.316;-1.050;2024-03-08T06:00:10;5.63;;;4.10;;
18568;SDS011;14780;48.316;-1.050;2024-03-08T06:02:55;5.32;;;4.10;;
18568;SDS011;14780;48.316;-1.050;2024-03-08T06:05:40;6.05;;;4.50;;
18568;SDS011;14780;48.316;-1.050;2024-03-08T06:08:25;5.80;;;4.20;;
18568;SDS011;14780;48.316;-1.050;2024-03-08T06:11:13;6.13;;;4.07;;
18568;SDS011;14780;48.316;-1.050;2024-03-08T06:13:58;6.30;;;3.80;;
18568;SDS011;14780;48.316;-1.050;2024-03-08T06:16:46;5.53;;;3.70;;
18568;SDS011;14780;48.316;-1.050;2024-03-08T06:19:30;6.50;;;4.10;;
18568;SDS011;14780;48.316;-1.050;2024-03-08T06:22:15;5.55;;;4.18;;
18568;SDS011;14780;48.316;-1.050;2024-03-08T06:25:00;5.50;;;4.10;;
18568;SDS011;14780;48.316;-1.050;2024-03-08T06:27:44;5.18;;;3.92;;
18568;SDS011;14780;48.316;-1.050;2024-03-08T06:30:30;5.20;;;3.85;;
18568;SDS011;14780;48.316;-1.050;2024-03-08T06:33:15;4.60;;;3.60;;
18568;SDS011;14780;48.316;-1.050;2024-03-08T06:36:00;5.15;;;4.00;;
18568;SDS011;14780;48.316;-1.050;2024-03-08T06:38:45;4.82;;;3.70;;
18568;SDS011;14780;48.316;-1.050;2024-03-08T06:41:30;5.18;;;3.58;;
18568;SDS011;14780;48.316;-1.050;2024-03-08T06:44:15;5.93;;;3.80;;
18568;SDS011;14780;48.316;-1.050;2024-03-08T06:47:00;5.03;;;3.85;;
18568;SDS011;14780;48.316;-1.050;2024-03-08T06:49:45;4.72;;;3.80;;
18568;SDS011;14780;48.316;-1.050;2024-03-08T06:52:29;4.97;;;3.90;;
18568;SDS011;14780;48.316;-1.050;2024-03-08T06:55:14;5.05;;;3.70;;
18568;SDS011;14780;48.316;-1.050;2024-03-08T06:57:58;4.60;;;3.60;;
18568;SDS011;14780;48.316;-1.050;2024-03-08T07:00:44;4.93;;;3.80;;
18568;SDS011;14780;48.316;-1.050;2024-03-08T07:03:29;5.10;;;3.70;;
18568;SDS011;14780;48.316;-1.050;2024-03-08T07:06:14;4.60;;;3.70;;
18568;SDS011;14780;48.316;-1.050;2024-03-08T07:08:59;5.53;;;3.70;;
18568;SDS011;14780;48.316;-1.050;2024-03-08T07:11:44;5.40;;;3.70;;
18568;SDS011;14780;48.316;-1.050;2024-03-08T07:14:30;5.28;;;3.78;;
18568;SDS011;14780;48.316;-1.050;2024-03-08T07:17:14;5.53;;;4.00;;
18568;SDS011;14780;48.316;-1.050;2024-03-08T07:20:00;4.55;;;3.80;;
18568;SDS011;14780;48.316;-1.050;2024-03-08T07:22:51;5.43;;;3.70;;
18568;SDS011;14780;48.316;-1.050;2024-03-08T07:25:36;4.63;;;3.50;;
18568;SDS011;14780;48.316;-1.050;2024-03-08T07:28:22;4.60;;;3.60;;
18568;SDS011;14780;48.316;-1.050;2024-03-08T07:31:07;5.07;;;3.97;;
18568;SDS011;14780;48.316;-1.050;2024-03-08T07:33:58;4.88;;;3.53;;
18568;SDS011;14780;48.316;-1.050;2024-03-08T07:36:42;4.70;;;3.70;;
18568;SDS011;14780;48.316;-1.050;2024-03-08T07:39:28;5.55;;;4.03;;
18568;SDS011;14780;48.316;-1.050;2024-03-08T07:42:13;5.15;;;3.90;;
18568;SDS011;14780;48.316;-1.050;2024-03-08T07:44:58;5.03;;;3.75;;
18568;SDS011;14780;48.316;-1.050;2024-03-08T07:47:43;5.40;;;4.03;;
18568;SDS011;14780;48.316;-1.050;2024-03-08T07:50:29;8.55;;;3.95;;
18568;SDS011;14780;48.316;-1.050;2024-03-08T07:53:14;12.43;;;4.10;;
18568;SDS011;14780;48.316;-1.050;2024-03-08T07:55:59;7.60;;;4.13;;
18568;SDS011;14780;48.316;-1.050;2024-03-08T07:58:44;8.73;;;4.10;;
18568;SDS011;14780;48.316;-1.050;2024-03-08T08:01:29;8.50;;;4.00;;
18568;SDS011;14780;48.316;-1.050;2024-03-08T08:04:14;11.38;;;3.78;;
18568;SDS011;14780;48.316;-1.050;2024-03-08T08:07:02;9.07;;;3.90;;
18568;SDS011;14780;48.316;-1.050;2024-03-08T08:09:47;7.40;;;4.20;;
18568;SDS011;14780;48.316;-1.050;2024-03-08T08:12:33;9.30;;;4.20;;
18568;SDS011;14780;48.316;-1.050;2024-03-08T08:15:17;6.07;;;4.18;;
18568;SDS011;14780;48.316;-1.050;2024-03-08T08:18:02;7.18;;;3.95;;
18568;SDS011;14780;48.316;-1.050;2024-03-08T08:20:49;8.35;;;4.10;;
18568;SDS011;14780;48.316;-1.050;2024-03-08T08:23:33;5.82;;;4.05;;
18568;SDS011;14780;48.316;-1.050;2024-03-08T08:26:18;8.23;;;4.13;;
18568;SDS011;14780;48.316;-1.050;2024-03-08T08:29:04;6.28;;;3.60;;
18568;SDS011;14780;48.316;-1.050;2024-03-08T08:31:50;6.93;;;4.10;;
18568;SDS011;14780;48.316;-1.050;2024-03-08T08:34:34;6.32;;;3.80;;
18568;SDS011;14780;48.316;-1.050;2024-03-08T08:37:19;6.68;;;4.10;;
18568;SDS011;14780;48.316;-1.050;2024-03-08T08:40:04;7.00;;;3.92;;
18568;SDS011;14780;48.316;-1.050;2024-03-08T08:42:52;6.15;;;4.05;;
18568;SDS011;14780;48.316;-1.050;2024-03-08T08:45:37;6.45;;;4.50;;
18568;SDS011;14780;48.316;-1.050;2024-03-08T08:48:22;7.20;;;4.30;;
18568;SDS011;14780;48.316;-1.050;2024-03-08T08:51:11;6.07;;;4.18;;
18568;SDS011;14780;48.316;-1.050;2024-03-08T08:53:56;7.13;;;4.00;;
18568;SDS011;14780;48.316;-1.050;2024-03-08T08:56:40;7.18;;;4.15;;
18568;SDS011;14780;48.316;-1.050;2024-03-08T08:59:25;8.32;;;4.32;;
18568;SDS011;14780;48.316;-1.050;2024-03-08T09:02:10;6.78;;;3.95;;
18568;SDS011;14780;48.316;-1.050;2024-03-08T09:04:56;9.48;;;4.13;;
18568;SDS011;14780;48.316;-1.050;2024-03-08T09:07:41;6.95;;;4.45;;
18568;SDS011;14780;48.316;-1.050;2024-03-08T09:10:28;5.82;;;3.90;;
18568;SDS011;14780;48.316;-1.050;2024-03-08T09:13:13;7.95;;;4.25;;
18568;SDS011;14780;48.316;-1.050;2024-03-08T09:15:58;6.72;;;4.63;;
18568;SDS011;14780;48.316;-1.050;2024-03-08T09:18:43;10.20;;;5.05;;
18568;SDS011;14780;48.316;-1.050;2024-03-08T09:21:28;7.50;;;5.28;;
18568;SDS011;14780;48.316;-1.050;2024-03-08T09:24:15;10.18;;;5.35;;
18568;SDS011;14780;48.316;-1.050;2024-03-08T09:26:59;8.75;;;5.63;;
18568;SDS011;14780;48.316;-1.050;2024-03-08T09:29:44;7.90;;;5.82;;
18568;SDS011;14780;48.316;-1.050;2024-03-08T09:32:29;8.73;;;5.70;;
18568;SDS011;14780;48.316;-1.050;2024-03-08T09:35:14;7.57;;;5.78;;
18568;SDS011;14780;48.316;-1.050;2024-03-08T09:37:59;9.90;;;6.40;;
18568;SDS011;14780;48.316;-1.050;2024-03-08T09:40:43;9.70;;;6.05;;
18568;SDS011;14780;48.316;-1.050;2024-03-08T09:43:29;8.18;;;5.97;;
18568;SDS011;14780;48.316;-1.050;2024-03-08T09:46:14;12.10;;;6.13;;
18568;SDS011;14780;48.316;-1.050;2024-03-08T09:49:01;9.10;;;6.20;;
18568;SDS011;14780;48.316;-1.050;2024-03-08T09:51:49;8.63;;;6.00;;
18568;SDS011;14780;48.316;-1.050;2024-03-08T09:54:35;7.80;;;5.70;;
18568;SDS011;14780;48.316;-1.050;2024-03-08T09:57:20;7.65;;;5.72;;
18568;SDS011;14780;48.316;-1.050;2024-03-08T10:00:05;7.40;;;5.13;;
18568;SDS011;14780;48.316;-1.050;2024-03-08T10:03:07;6.82;;;5.10;;
18568;SDS011;14780;48.316;-1.050;2024-03-08T10:05:53;8.40;;;4.72;;
18568;SDS011;14780;48.316;-1.050;2024-03-08T10:08:40;6.35;;;4.80;;
18568;SDS011;14780;48.316;-1.050;2024-03-08T10:11:26;8.00;;;5.95;;
18568;SDS011;14780;48.316;-1.050;2024-03-08T10:14:11;7.10;;;5.90;;
18568;SDS011;14780;48.316;-1.050;2024-03-08T10:16:59;8.75;;;6.15;;
18568;SDS011;14780;48.316;-1.050;2024-03-08T10:19:51;10.30;;;5.82;;
18568;SDS011;14780;48.316;-1.050;2024-03-08T10:22:36;8.45;;;5.72;;
18568;SDS011;14780;48.316;-1.050;2024-03-08T10:25:22;8.38;;;5.60;;
18568;SDS011;14780;48.316;-1.050;2024-03-08T10:28:07;8.48;;;5.25;;
18568;SDS011;14780;48.316;-1.050;2024-03-08T10:30:52;7.37;;;5.27;;
18568;SDS011;14780;48.316;-1.050;2024-03-08T10:33:39;10.63;;;5.45;;
18568;SDS011;14780;48.316;-1.050;2024-03-08T10:36:25;8.13;;;5.77;;
18568;SDS011;14780;48.316;-1.050;2024-03-08T10:39:21;11.35;;;5.80;;
18568;SDS011;14780;48.316;-1.050;2024-03-08T10:42:09;7.53;;;5.10;;
18568;SDS011;14780;48.316;-1.050;2024-03-08T10:45:05;12.45;;;5.32;;
18568;SDS011;14780;48.316;-1.050;2024-03-08T10:48:10;7.03;;;4.88;;
18568;SDS011;14780;48.316;-1.050;2024-03-08T10:51:15;7.38;;;5.07;;
18568;SDS011;14780;48.316;-1.050;2024-03-08T10:54:00;10.68;;;4.80;;
18568;SDS011;14780;48.316;-1.050;2024-03-08T10:56:47;7.00;;;4.65;;
18568;SDS011;14780;48.316;-1.050;2024-03-08T10:59:34;6.82;;;4.60;;
18568;SDS011;14780;48.316;-1.050;2024-03-08T11:02:19;9.10;;;4.72;;
18568;SDS011;14780;48.316;-1.050;2024-03-08T11:05:04;6.82;;;4.53;;
18568;SDS011;14780;48.316;-1.050;2024-03-08T11:07:57;6.10;;;4.13;;
18568;SDS011;14780;48.316;-1.050;2024-03-08T11:10:47;7.10;;;4.30;;
18568;SDS011;14780;48.316;-1.050;2024-03-08T11:13:36;6.82;;;4.20;;
18568;SDS011;14780;48.316;-1.050;2024-03-08T11:21:57;6.75;;;4.07;;
18568;SDS011;14780;48.316;-1.050;2024-03-08T11:24:43;5.63;;;3.80;;
18568;SDS011;14780;48.316;-1.050;2024-03-08T11:27:29;5.70;;;3.90;;
18568;SDS011;14780;48.316;-1.050;2024-03-08T11:30:14;5.28;;;3.65;;
18568;SDS011;14780;48.316;-1.050;2024-03-08T11:33:11;6.15;;;3.88;;
18568;SDS011;14780;48.316;-1.050;2024-03-08T11:36:02;5.53;;;3.58;;
18568;SDS011;14780;48.316;-1.050;2024-03-08T11:39:06;4.97;;;3.60;;
18568;SDS011;14780;48.316;-1.050;2024-03-08T11:41:58;5.65;;;3.85;;
18568;SDS011;14780;48.316;-1.050;2024-03-08T11:44:45;5.23;;;3.57;;
18568;SDS011;14780;48.316;-1.050;2024-03-08T11:47:31;8.73;;;3.85;;
18568;SDS011;14780;48.316;-1.050;2024-03-08T11:50:15;6.15;;;3.70;;
18568;SDS011;14780;48.316;-1.050;2024-03-08T11:53:03;6.80;;;3.67;;
18568;SDS011;14780;48.316;-1.050;2024-03-08T11:55:48;8.52;;;3.80;;
18568;SDS011;14780;48.316;-1.050;2024-03-08T11:58:33;6.20;;;3.63;;
18568;SDS011;14780;48.316;-1.050;2024-03-08T12:01:20;5.93;;;4.00;;
18568;SDS011;14780;48.316;-1.050;2024-03-08T12:04:05;7.63;;;3.70;;
18568;SDS011;14780;48.316;-1.050;2024-03-08T12:06:50;6.10;;;3.90;;
18568;SDS011;14780;48.316;-1.050;2024-03-08T12:09:36;10.73;;;3.88;;
18568;SDS011;14780;48.316;-1.050;2024-03-08T12:12:20;7.13;;;3.53;;
18568;SDS011;14780;48.316;-1.050;2024-03-08T12:15:05;7.68;;;3.95;;
18568;SDS011;14780;48.316;-1.050;2024-03-08T12:17:52;11.70;;;3.70;;
18568;SDS011;14780;48.316;-1.050;2024-03-08T12:20:39;8.60;;;3.97;;
18568;SDS011;14780;48.316;-1.050;2024-03-08T12:23:27;5.35;;;3.20;;
18568;SDS011;14780;48.316;-1.050;2024-03-08T12:26:13;5.60;;;3.65;;
18568;SDS011;14780;48.316;-1.050;2024-03-08T12:29:18;6.72;;;3.40;;
18568;SDS011;14780;48.316;-1.050;2024-03-08T12:32:06;6.93;;;3.65;;
18568;SDS011;14780;48.316;-1.050;2024-03-08T12:34:52;5.07;;;3.45;;
18568;SDS011;14780;48.316;-1.050;2024-03-08T12:37:37;5.28;;;3.38;;
18568;SDS011;14780;48.316;-1.050;2024-03-08T12:40:26;4.70;;;3.33;;
18568;SDS011;14780;48.316;-1.050;2024-03-08T12:43:12;7.35;;;3.45;;
18568;SDS011;14780;48.316;-1.050;2024-03-08T12:45:59;6.00;;;3.57;;
18568;SDS011;14780;48.316;-1.050;2024-03-08T12:48:44;9.75;;;3.47;;
18568;SDS011;14780;48.316;-1.050;2024-03-08T12:51:30;6.90;;;3.58;;
18568;SDS011;14780;48.316;-1.050;2024-03-08T12:54:17;5.55;;;3.53;;
18568;SDS011;14780;48.316;-1.050;2024-03-08T12:57:06;6.88;;;3.45;;
18568;SDS011;14780;48.316;-1.050;2024-03-08T12:59:51;7.15;;;3.50;;
18568;SDS011;14780;48.316;-1.050;2024-03-08T13:02:37;5.95;;;3.50;;
18568;SDS011;14780;48.316;-1.050;2024-03-08T13:05:25;6.57;;;3.40;;
18568;SDS011;14780;48.316;-1.050;2024-03-08T13:08:11;6.85;;;3.55;;
18568;SDS011;14780;48.316;-1.050;2024-03-08T13:10:59;5.38;;;3.60;;
18568;SDS011;14780;48.316;-1.050;2024-03-08T13:13:44;4.88;;;3.22;;
18568;SDS011;14780;48.316;-1.050;2024-03-08T13:16:30;6.20;;;3.25;;
18568;SDS011;14780;48.316;-1.050;2024-03-08T13:19:15;5.10;;;3.30;;
18568;SDS011;14780;48.316;-1.050;2024-03-08T13:22:00;5.20;;;3.53;;
18568;SDS011;14780;48.316;-1.050;2024-03-08T13:24:48;5.57;;;3.22;;
18568;SDS011;14780;48.316;-1.050;2024-03-08T13:27:33;5.80;;;3.28;;
18568;SDS011;14780;48.316;-1.050;2024-03-08T13:30:20;6.30;;;3.50;;
18568;SDS011;14780;48.316;-1.050;2024-03-08T13:33:07;7.30;;;3.30;;
18568;SDS011;14780;48.316;-1.050;2024-03-08T13:35:53;5.23;;;3.10;;
18568;SDS011;14780;48.316;-1.050;2024-03-08T13:38:38;4.68;;;3.10;;
18568;SDS011;14780;48.316;-1.050;2024-03-08T13:41:23;5.90;;;3.13;;
18568;SDS011;14780;48.316;-1.050;2024-03-08T13:44:08;5.85;;;3.30;;
18568;SDS011;14780;48.316;-1.050;2024-03-08T13:46:53;4.43;;;3.10;;
18568;SDS011;14780;48.316;-1.050;2024-03-08T13:49:41;4.45;;;3.05;;
18568;SDS011;14780;48.316;-1.050;2024-03-08T13:52:27;8.57;;;3.13;;
18568;SDS011;14780;48.316;-1.050;2024-03-08T13:55:13;4.93;;;3.40;;
18568;SDS011;14780;48.316;-1.050;2024-03-08T13:57:58;5.90;;;3.28;;
18568;SDS011;14780;48.316;-1.050;2024-03-08T14:00:44;4.38;;;3.03;;
18568;SDS011;14780;48.316;-1.050;2024-03-08T14:03:31;6.43;;;3.20;;
18568;SDS011;14780;48.316;-1.050;2024-03-08T14:06:16;5.13;;;3.22;;
18568;SDS011;14780;48.316;-1.050;2024-03-08T14:09:00;4.88;;;3.20;;
18568;SDS011;14780;48.316;-1.050;2024-03-08T14:11:46;5.22;;;2.90;;
18568;SDS011;14780;48.316;-1.050;2024-03-08T14:14:30;4.68;;;3.10;;
18568;SDS011;14780;48.316;-1.050;2024-03-08T14:17:17;4.90;;;3.13;;
18568;SDS011;14780;48.316;-1.050;2024-03-08T14:20:03;5.43;;;3.10;;
18568;SDS011;14780;48.316;-1.050;2024-03-08T14:22:48;4.95;;;3.20;;
18568;SDS011;14780;48.316;-1.050;2024-03-08T14:25:34;5.70;;;3.10;;
18568;SDS011;14780;48.316;-1.050;2024-03-08T14:28:20;6.05;;;3.63;;
18568;SDS011;14780;48.316;-1.050;2024-03-08T14:31:06;5.18;;;3.55;;
18568;SDS011;14780;48.316;-1.050;2024-03-08T14:33:54;5.72;;;3.63;;
18568;SDS011;14780;48.316;-1.050;2024-03-08T14:36:40;8.05;;;4.35;;
18568;SDS011;14780;48.316;-1.050;2024-03-08T14:39:25;6.80;;;4.13;;
18568;SDS011;14780;48.316;-1.050;2024-03-08T14:42:12;7.38;;;3.70;;
18568;SDS011;14780;48.316;-1.050;2024-03-08T14:44:58;6.50;;;3.83;;
18568;SDS011;14780;48.316;-1.050;2024-03-08T14:47:43;6.90;;;3.67;;
18568;SDS011;14780;48.316;-1.050;2024-03-08T14:50:33;6.38;;;3.45;;
18568;SDS011;14780;48.316;-1.050;2024-03-08T14:53:20;6.40;;;3.60;;
18568;SDS011;14780;48.316;-1.050;2024-03-08T14:56:06;6.78;;;3.85;;
18568;SDS011;14780;48.316;-1.050;2024-03-08T14:58:52;7.20;;;3.90;;
18568;SDS011;14780;48.316;-1.050;2024-03-08T15:01:36;8.98;;;3.80;;
18568;SDS011;14780;48.316;-1.050;2024-03-08T15:04:21;7.00;;;3.85;;
18568;SDS011;14780;48.316;-1.050;2024-03-08T15:07:06;6.28;;;3.80;;
18568;SDS011;14780;48.316;-1.050;2024-03-08T15:09:53;6.53;;;3.55;;
18568;SDS011;14780;48.316;-1.050;2024-03-08T15:12:39;6.50;;;3.45;;
18568;SDS011;14780;48.316;-1.050;2024-03-08T15:15:24;6.05;;;3.53;;
18568;SDS011;14780;48.316;-1.050;2024-03-08T15:18:09;6.13;;;3.63;;
18568;SDS011;14780;48.316;-1.050;2024-03-08T15:20:55;5.28;;;3.40;;
18568;SDS011;14780;48.316;-1.050;2024-03-08T15:23:39;6.10;;;3.58;;
18568;SDS011;14780;48.316;-1.050;2024-03-08T15:26:27;5.60;;;3.40;;
18568;SDS011;14780;48.316;-1.050;2024-03-08T15:29:13;6.15;;;3.50;;
18568;SDS011;14780;48.316;-1.050;2024-03-08T15:31:58;6.05;;;3.47;;
18568;SDS011;14780;48.316;-1.050;2024-03-08T15:34:42;5.00;;;3.30;;
18568;SDS011;14780;48.316;-1.050;2024-03-08T15:37:28;5.25;;;3.50;;
18568;SDS011;14780;48.316;-1.050;2024-03-08T15:40:14;4.93;;;3.25;;
18568;SDS011;14780;48.316;-1.050;2024-03-08T15:43:07;6.50;;;3.60;;
18568;SDS011;14780;48.316;-1.050;2024-03-08T15:45:52;5.07;;;3.50;;
18568;SDS011;14780;48.316;-1.050;2024-03-08T15:48:38;5.35;;;3.30;;
18568;SDS011;14780;48.316;-1.050;2024-03-08T15:51:27;4.78;;;3.40;;
18568;SDS011;14780;48.316;-1.050;2024-03-08T15:54:14;5.43;;;3.07;;
18568;SDS011;14780;48.316;-1.050;2024-03-08T15:56:59;5.93;;;3.30;;
18568;SDS011;14780;48.316;-1.050;2024-03-08T15:59:46;4.40;;;3.20;;
18568;SDS011;14780;48.316;-1.050;2024-03-08T16:02:31;4.97;;;3.03;;
18568;SDS011;14780;48.316;-1.050;2024-03-08T16:05:16;4.40;;;3.15;;
18568;SDS011;14780;48.316;-1.050;2024-03-08T16:08:03;6.40;;;3.33;;
18568;SDS011;14780;48.316;-1.050;2024-03-08T16:10:52;4.80;;;2.90;;
18568;SDS011;14780;48.316;-1.050;2024-03-08T16:13:41;4.35;;;2.95;;
18568;SDS011;14780;48.316;-1.050;2024-03-08T16:16:26;6.25;;;3.20;;
18568;SDS011;14780;48.316;-1.050;2024-03-08T16:19:13;6.70;;;4.25;;
18568;SDS011;14780;48.316;-1.050;2024-03-08T16:21:58;8.10;;;4.90;;
18568;SDS011;14780;48.316;-1.050;2024-03-08T16:24:43;8.20;;;3.97;;
18568;SDS011;14780;48.316;-1.050;2024-03-08T16:27:28;7.63;;;4.10;;
18568;SDS011;14780;48.316;-1.050;2024-03-08T16:30:16;5.63;;;3.87;;